sensor_id;sensor_type;location;lat;lon;timestamp;P1;durP1;ratioP1;P2;durP2;ratioP2
920;SDS011;447;51.332;6.778;2024-03-23T00:53:55;11.43;;;4.00;;
920;SDS011;447;51.332;6.778;2024-03-23T00:56:22;7.60;;;3.30;;
920;SDS011;447;51.332;6.778;2024-03-23T00:58:50;6.57;;;3.20;;
920;SDS011;447;51.332;6.778;2024-03-23T01:01:16;5.20;;;3.20;;
920;SDS011;447;51.332;6.778;2024-03-23T01:03:42;8.03;;;3.13;;
920;SDS011;447;51.332;6.778;2024-03-23T01:06:08;7.33;;;3.60;;
920;SDS011;447;51.332;6.778;2024-03-23T01:08:34;8.83;;;3.60;;
920;SDS011;447;51.332;6.778;2024-03-23T01:11:01;8.77;;;3.27;;
920;SDS011;447;51.332;6.778;2024-03-23T01:13:28;5.80;;;2.90;;
920;SDS011;447;51.332;6.778;2024-03-23T01:15:56;5.50;;;2.97;;
920;SDS011;447;51.332;6.778;2024-03-23T01:18:24;8.47;;;3.10;;
920;SDS011;447;51.332;6.778;2024-03-23T01:20:52;12.03;;;3.40;;
920;SDS011;447;51.332;6.778;2024-03-23T01:23:18;10.83;;;3.53;;
920;SDS011;447;51.332;6.778;2024-03-23T01:25:50;10.30;;;3.80;;
920;SDS011;447;51.332;6.778;2024-03-23T01:28:17;9.33;;;3.23;;
920;SDS011;447;51.332;6.778;2024-03-23T01:30:43;10.00;;;2.93;;
920;SDS011;447;51.332;6.778;2024-03-23T01:33:09;5.60;;;2.70;;
920;SDS011;447;51.332;6.778;2024-03-23T01:35:35;4.93;;;2.40;;
920;SDS011;447;51.332;6.778;2024-03-23T01:38:01;5.33;;;2.43;;
920;SDS011;447;51.332;6.778;2024-03-23T01:40:27;8.57;;;3.37;;
920;SDS011;447;51.332;6.778;2024-03-23T01:43:03;7.20;;;2.70;;
920;SDS011;447;51.332;6.778;2024-03-23T01:45:31;5.33;;;2.97;;
920;SDS011;447;51.332;6.778;2024-03-23T01:48:00;4.03;;;2.30;;
920;SDS011;447;51.332;6.778;2024-03-23T01:50:27;6.77;;;2.33;;
920;SDS011;447;51.332;6.778;2024-03-23T01:52:56;6.47;;;2.60;;
920;SDS011;447;51.332;6.778;2024-03-23T01:55:23;4.90;;;2.30;;
920;SDS011;447;51.332;6.778;2024-03-23T01:57:50;8.30;;;3.07;;
920;SDS011;447;51.332;6.778;2024-03-23T02:00:19;10.60;;;2.43;;
920;SDS011;447;51.332;6.778;2024-03-23T02:02:48;6.47;;;2.50;;
920;SDS011;447;51.332;6.778;2024-03-23T02:05:14;6.63;;;2.77;;
920;SDS011;447;51.332;6.778;2024-03-23T02:07:41;9.80;;;3.17;;
920;SDS011;447;51.332;6.778;2024-03-23T02:10:08;6.37;;;2.43;;
920;SDS011;447;51.332;6.778;2024-03-23T02:12:35;6.60;;;2.40;;
920;SDS011;447;51.332;6.778;2024-03-23T02:15:02;5.37;;;2.73;;
920;SDS011;447;51.332;6.778;2024-03-23T02:17:30;4.40;;;2.00;;
920;SDS011;447;51.332;6.778;2024-03-23T02:20:02;5.73;;;3.33;;
920;SDS011;447;51.332;6.778;2024-03-23T02:22:39;5.40;;;2.60;;
920;SDS011;447;51.332;6.778;2024-03-23T02:25:07;3.63;;;2.10;;
920;SDS011;447;51.332;6.778;2024-03-23T02:27:33;5.47;;;2.20;;
920;SDS011;447;51.332;6.778;2024-03-23T02:30:04;3.80;;;2.10;;
920;SDS011;447;51.332;6.778;2024-03-23T02:32:31;5.00;;;2.70;;
920;SDS011;447;51.332;6.778;2024-03-23T02:34:57;5.03;;;2.23;;
920;SDS011;447;51.332;6.778;2024-03-23T02:37:23;3.80;;;2.10;;
920;SDS011;447;51.332;6.778;2024-03-23T02:39:49;3.90;;;2.40;;
920;SDS011;447;51.332;6.778;2024-03-23T02:42:15;3.47;;;2.33;;
920;SDS011;447;51.332;6.778;2024-03-23T02:44:43;5.90;;;2.20;;
920;SDS011;447;51.332;6.778;2024-03-23T02:47:10;7.80;;;2.50;;
920;SDS011;447;51.332;6.778;2024-03-23T02:49:38;4.37;;;2.40;;
920;SDS011;447;51.332;6.778;2024-03-23T02:52:04;3.80;;;2.23;;
920;SDS011;447;51.332;6.778;2024-03-23T02:54:31;4.40;;;2.40;;
920;SDS011;447;51.332;6.778;2024-03-23T02:56:57;5.57;;;2.03;;
920;SDS011;447;51.332;6.778;2024-03-23T02:59:25;4.97;;;2.20;;
920;SDS011;447;51.332;6.778;2024-03-23T03:01:51;6.70;;;2.70;;
920;SDS011;447;51.332;6.778;2024-03-23T03:04:18;5.13;;;2.03;;
920;SDS011;447;51.332;6.778;2024-03-23T03:06:46;7.57;;;1.77;;
920;SDS011;447;51.332;6.778;2024-03-23T03:09:13;5.70;;;2.50;;
920;SDS011;447;51.332;6.778;2024-03-23T03:11:45;5.53;;;1.90;;
920;SDS011;447;51.332;6.778;2024-03-23T03:14:13;5.47;;;2.13;;
920;SDS011;447;51.332;6.778;2024-03-23T03:16:39;4.30;;;2.30;;
920;SDS011;447;51.332;6.778;2024-03-23T03:19:05;7.60;;;2.23;;
920;SDS011;447;51.332;6.778;2024-03-23T03:21:31;5.03;;;2.40;;
920;SDS011;447;51.332;6.778;2024-03-23T03:23:58;3.63;;;2.07;;
920;SDS011;447;51.332;6.778;2024-03-23T03:26:26;4.10;;;2.10;;
920;SDS011;447;51.332;6.778;2024-03-23T03:28:53;3.00;;;1.90;;
920;SDS011;447;51.332;6.778;2024-03-23T03:31:18;5.47;;;1.80;;
920;SDS011;447;51.332;6.778;2024-03-23T03:33:45;4.93;;;2.33;;
920;SDS011;447;51.332;6.778;2024-03-23T03:36:13;4.67;;;2.20;;
920;SDS011;447;51.332;6.778;2024-03-23T03:38:39;1.87;;;1.70;;
920;SDS011;447;51.332;6.778;2024-03-23T03:41:05;3.13;;;1.90;;
920;SDS011;447;51.332;6.778;2024-03-23T03:43:34;5.43;;;2.10;;
920;SDS011;447;51.332;6.778;2024-03-23T03:46:02;3.57;;;1.73;;
920;SDS011;447;51.332;6.778;2024-03-23T03:48:28;6.33;;;2.17;;
920;SDS011;447;51.332;6.778;2024-03-23T03:50:54;4.13;;;1.87;;
920;SDS011;447;51.332;6.778;2024-03-23T03:53:20;5.13;;;2.50;;
920;SDS011;447;51.332;6.778;2024-03-23T03:55:46;7.30;;;1.97;;
920;SDS011;447;51.332;6.778;2024-03-23T03:58:17;6.77;;;2.63;;
920;SDS011;447;51.332;6.778;2024-03-23T04:00:43;5.47;;;1.90;;
920;SDS011;447;51.332;6.778;2024-03-23T04:03:14;2.60;;;1.73;;
920;SDS011;447;51.332;6.778;2024-03-23T04:05:40;4.53;;;1.90;;
920;SDS011;447;51.332;6.778;2024-03-23T04:08:12;7.50;;;1.90;;
920;SDS011;447;51.332;6.778;2024-03-23T04:10:38;4.50;;;1.47;;
920;SDS011;447;51.332;6.778;2024-03-23T04:13:09;3.00;;;1.73;;
920;SDS011;447;51.332;6.778;2024-03-23T04:15:34;7.83;;;2.23;;
920;SDS011;447;51.332;6.778;2024-03-23T04:18:00;4.80;;;1.70;;
920;SDS011;447;51.332;6.778;2024-03-23T04:20:26;4.00;;;1.70;;
920;SDS011;447;51.332;6.778;2024-03-23T04:22:52;4.73;;;1.70;;
920;SDS011;447;51.332;6.778;2024-03-23T04:25:19;7.23;;;2.43;;
920;SDS011;447;51.332;6.778;2024-03-23T04:27:45;4.23;;;2.17;;
920;SDS011;447;51.332;6.778;2024-03-23T04:30:13;3.57;;;1.93;;
920;SDS011;447;51.332;6.778;2024-03-23T04:32:40;2.43;;;1.40;;
920;SDS011;447;51.332;6.778;2024-03-23T04:35:12;4.07;;;1.57;;
920;SDS011;447;51.332;6.778;2024-03-23T04:37:38;4.67;;;1.93;;
920;SDS011;447;51.332;6.778;2024-03-23T04:40:07;4.83;;;1.80;;
920;SDS011;447;51.332;6.778;2024-03-23T04:42:36;3.90;;;1.60;;
920;SDS011;447;51.332;6.778;2024-03-23T04:45:05;4.97;;;1.93;;
920;SDS011;447;51.332;6.778;2024-03-23T04:47:31;4.40;;;1.80;;
920;SDS011;447;51.332;6.778;2024-03-23T04:49:58;3.77;;;1.90;;
920;SDS011;447;51.332;6.778;2024-03-23T04:52:24;5.17;;;1.87;;
920;SDS011;447;51.332;6.778;2024-03-23T04:54:51;3.17;;;1.83;;
920;SDS011;447;51.332;6.778;2024-03-23T04:57:16;4.37;;;2.03;;
920;SDS011;447;51.332;6.778;2024-03-23T04:59:47;2.43;;;1.67;;
920;SDS011;447;51.332;6.778;2024-03-23T05:02:16;4.73;;;2.20;;
920;SDS011;447;51.332;6.778;2024-03-23T05:04:44;4.43;;;2.37;;
920;SDS011;447;51.332;6.778;2024-03-23T05:07:10;8.33;;;3.13;;
920;SDS011;447;51.332;6.778;2024-03-23T05:09:36;2.83;;;1.60;;
920;SDS011;447;51.332;6.778;2024-03-23T05:12:02;2.07;;;1.70;;
920;SDS011;447;51.332;6.778;2024-03-23T05:14:29;8.97;;;2.30;;
920;SDS011;447;51.332;6.778;2024-03-23T05:16:57;5.03;;;2.07;;
920;SDS011;447;51.332;6.778;2024-03-23T05:19:25;4.87;;;2.20;;
920;SDS011;447;51.332;6.778;2024-03-23T05:21:53;3.13;;;1.97;;
920;SDS011;447;51.332;6.778;2024-03-23T05:24:22;5.83;;;2.37;;
920;SDS011;447;51.332;6.778;2024-03-23T05:26:53;8.57;;;2.70;;
920;SDS011;447;51.332;6.778;2024-03-23T05:29:18;4.40;;;1.90;;
920;SDS011;447;51.332;6.778;2024-03-23T05:31:44;5.30;;;2.53;;
920;SDS011;447;51.332;6.778;2024-03-23T05:34:17;4.70;;;2.10;;
920;SDS011;447;51.332;6.778;2024-03-23T05:36:46;4.03;;;2.37;;
920;SDS011;447;51.332;6.778;2024-03-23T05:39:14;6.77;;;2.73;;
920;SDS011;447;51.332;6.778;2024-03-23T05:41:42;7.83;;;2.63;;
920;SDS011;447;51.332;6.778;2024-03-23T05:44:12;4.20;;;2.40;;
920;SDS011;447;51.332;6.778;2024-03-23T05:46:40;3.57;;;2.63;;
920;SDS011;447;51.332;6.778;2024-03-23T05:51:39;4.50;;;2.17;;
920;SDS011;447;51.332;6.778;2024-03-23T05:54:05;4.70;;;2.27;;
920;SDS011;447;51.332;6.778;2024-03-23T05:56:33;4.70;;;2.40;;
920;SDS011;447;51.332;6.778;2024-03-23T05:59:01;8.03;;;2.37;;
920;SDS011;447;51.332;6.778;2024-03-23T06:01:30;5.67;;;2.40;;
920;SDS011;447;51.332;6.778;2024-03-23T06:03:58;6.77;;;2.80;;
920;SDS011;447;51.332;6.778;2024-03-23T06:06:28;6.20;;;3.17;;
920;SDS011;447;51.332;6.778;2024-03-23T06:08:55;5.63;;;2.60;;
920;SDS011;447;51.332;6.778;2024-03-23T06:11:21;3.70;;;2.30;;
920;SDS011;447;51.332;6.778;2024-03-23T06:13:47;5.10;;;2.10;;
920;SDS011;447;51.332;6.778;2024-03-23T06:16:13;5.33;;;2.73;;
920;SDS011;447;51.332;6.778;2024-03-23T06:18:39;3.97;;;2.07;;
920;SDS011;447;51.332;6.778;2024-03-23T06:21:05;4.73;;;2.50;;
920;SDS011;447;51.332;6.778;2024-03-23T06:23:39;5.17;;;2.40;;
920;SDS011;447;51.332;6.778;2024-03-23T06:26:06;3.60;;;2.30;;
920;SDS011;447;51.332;6.778;2024-03-23T06:28:32;5.07;;;2.67;;
920;SDS011;447;51.332;6.778;2024-03-23T06:30:58;7.33;;;3.30;;
920;SDS011;447;51.332;6.778;2024-03-23T06:33:25;5.10;;;3.03;;
920;SDS011;447;51.332;6.778;2024-03-23T06:35:53;7.20;;;3.20;;
920;SDS011;447;51.332;6.778;2024-03-23T06:38:21;5.87;;;2.70;;
920;SDS011;447;51.332;6.778;2024-03-23T06:40:49;5.97;;;2.57;;
920;SDS011;447;51.332;6.778;2024-03-23T06:43:18;6.67;;;2.93;;
920;SDS011;447;51.332;6.778;2024-03-23T06:45:44;6.23;;;3.07;;
920;SDS011;447;51.332;6.778;2024-03-23T06:48:27;7.43;;;4.20;;
920;SDS011;447;51.332;6.778;2024-03-23T06:50:56;5.30;;;3.10;;
920;SDS011;447;51.332;6.778;2024-03-23T06:53:24;8.00;;;3.47;;
920;SDS011;447;51.332;6.778;2024-03-23T06:55:50;4.90;;;2.83;;
920;SDS011;447;51.332;6.778;2024-03-23T06:58:22;7.33;;;3.23;;
920;SDS011;447;51.332;6.778;2024-03-23T07:00:49;7.47;;;3.20;;
920;SDS011;447;51.332;6.778;2024-03-23T07:03:16;8.90;;;3.40;;
920;SDS011;447;51.332;6.778;2024-03-23T07:05:42;5.20;;;3.10;;
920;SDS011;447;51.332;6.778;2024-03-23T07:08:08;6.83;;;2.70;;
920;SDS011;447;51.332;6.778;2024-03-23T07:10:34;6.10;;;3.10;;
920;SDS011;447;51.332;6.778;2024-03-23T07:13:03;8.13;;;3.70;;
920;SDS011;447;51.332;6.778;2024-03-23T07:15:29;5.80;;;3.87;;
920;SDS011;447;51.332;6.778;2024-03-23T07:17:54;6.47;;;3.30;;
920;SDS011;447;51.332;6.778;2024-03-23T07:20:21;6.37;;;3.50;;
920;SDS011;447;51.332;6.778;2024-03-23T07:22:47;6.03;;;2.97;;
920;SDS011;447;51.332;6.778;2024-03-23T07:25:13;5.27;;;3.00;;
920;SDS011;447;51.332;6.778;2024-03-23T07:27:40;12.10;;;3.97;;
920;SDS011;447;51.332;6.778;2024-03-23T07:30:06;8.80;;;3.73;;
920;SDS011;447;51.332;6.778;2024-03-23T07:32:34;4.50;;;3.33;;
920;SDS011;447;51.332;6.778;2024-03-23T07:35:01;7.20;;;3.50;;
920;SDS011;447;51.332;6.778;2024-03-23T07:37:28;6.13;;;3.47;;
920;SDS011;447;51.332;6.778;2024-03-23T07:39:54;12.63;;;4.43;;
920;SDS011;447;51.332;6.778;2024-03-23T07:42:20;13.63;;;5.73;;
920;SDS011;447;51.332;6.778;2024-03-23T07:44:46;10.17;;;4.37;;
920;SDS011;447;51.332;6.778;2024-03-23T07:47:14;17.13;;;5.70;;
920;SDS011;447;51.332;6.778;2024-03-23T07:49:40;9.97;;;5.03;;
920;SDS011;447;51.332;6.778;2024-03-23T07:52:06;10.50;;;4.83;;
920;SDS011;447;51.332;6.778;2024-03-23T07:54:33;10.87;;;4.23;;
920;SDS011;447;51.332;6.778;2024-03-23T07:57:06;9.23;;;3.93;;
920;SDS011;447;51.332;6.778;2024-03-23T07:59:32;14.20;;;4.17;;
920;SDS011;447;51.332;6.778;2024-03-23T08:01:59;11.73;;;3.87;;
920;SDS011;447;51.332;6.778;2024-03-23T08:04:29;12.03;;;5.20;;
920;SDS011;447;51.332;6.778;2024-03-23T08:06:56;8.60;;;3.87;;
920;SDS011;447;51.332;6.778;2024-03-23T08:09:22;10.77;;;3.50;;
920;SDS011;447;51.332;6.778;2024-03-23T08:11:48;8.43;;;3.50;;
920;SDS011;447;51.332;6.778;2024-03-23T08:14:14;7.23;;;3.70;;
920;SDS011;447;51.332;6.778;2024-03-23T08:16:40;6.90;;;3.70;;
920;SDS011;447;51.332;6.778;2024-03-23T08:19:07;5.53;;;3.30;;
920;SDS011;447;51.332;6.778;2024-03-23T08:21:34;8.13;;;3.87;;
920;SDS011;447;51.332;6.778;2024-03-23T08:24:00;6.20;;;3.40;;
920;SDS011;447;51.332;6.778;2024-03-23T08:26:26;7.00;;;3.67;;
920;SDS011;447;51.332;6.778;2024-03-23T08:28:52;12.83;;;3.77;;
920;SDS011;447;51.332;6.778;2024-03-23T08:31:20;5.30;;;3.37;;
920;SDS011;447;51.332;6.778;2024-03-23T08:33:46;7.30;;;3.33;;
920;SDS011;447;51.332;6.778;2024-03-23T08:36:13;11.87;;;3.97;;
920;SDS011;447;51.332;6.778;2024-03-23T08:38:39;11.83;;;3.60;;
920;SDS011;447;51.332;6.778;2024-03-23T08:41:09;6.70;;;3.57;;
920;SDS011;447;51.332;6.778;2024-03-23T08:43:36;7.50;;;3.50;;
920;SDS011;447;51.332;6.778;2024-03-23T08:48:38;5.17;;;2.97;;
920;SDS011;447;51.332;6.778;2024-03-23T08:51:09;6.57;;;2.80;;
920;SDS011;447;51.332;6.778;2024-03-23T08:53:37;7.43;;;2.87;;
920;SDS011;447;51.332;6.778;2024-03-23T08:56:06;2.50;;;2.20;;
920;SDS011;447;51.332;6.778;2024-03-23T08:58:36;3.30;;;2.00;;
920;SDS011;447;51.332;6.778;2024-03-23T09:03:33;6.63;;;2.73;;
920;SDS011;447;51.332;6.778;2024-03-23T09:06:00;8.23;;;2.50;;
920;SDS011;447;51.332;6.778;2024-03-23T09:08:27;4.53;;;2.20;;
920;SDS011;447;51.332;6.778;2024-03-23T09:10:54;2.50;;;1.63;;
920;SDS011;447;51.332;6.778;2024-03-23T09:13:20;4.37;;;2.20;;
920;SDS011;447;51.332;6.778;2024-03-23T09:15:49;3.83;;;1.97;;
920;SDS011;447;51.332;6.778;2024-03-23T09:18:16;4.47;;;2.57;;
920;SDS011;447;51.332;6.778;2024-03-23T09:20:42;4.80;;;1.83;;
920;SDS011;447;51.332;6.778;2024-03-23T09:23:11;5.03;;;2.20;;
920;SDS011;447;51.332;6.778;2024-03-23T09:25:39;3.63;;;1.90;;
920;SDS011;447;51.332;6.778;2024-03-23T09:28:06;3.00;;;2.23;;
920;SDS011;447;51.332;6.778;2024-03-23T09:30:35;6.37;;;2.50;;
920;SDS011;447;51.332;6.778;2024-03-23T09:33:10;9.00;;;4.10;;
920;SDS011;447;51.332;6.778;2024-03-23T09:35:37;6.70;;;3.50;;
920;SDS011;447;51.332;6.778;2024-03-23T09:38:07;10.40;;;4.13;;
920;SDS011;447;51.332;6.778;2024-03-23T09:40:40;8.30;;;4.03;;
920;SDS011;447;51.332;6.778;2024-03-23T09:43:10;11.23;;;3.40;;
920;SDS011;447;51.332;6.778;2024-03-23T09:45:41;6.70;;;3.53;;
920;SDS011;447;51.332;6.778;2024-03-23T09:48:11;9.70;;;3.90;;
920;SDS011;447;51.332;6.778;2024-03-23T09:50:44;8.30;;;4.50;;
920;SDS011;447;51.332;6.778;2024-03-23T09:53:14;11.77;;;3.43;;
920;SDS011;447;51.332;6.778;2024-03-23T09:55:41;6.83;;;3.20;;
920;SDS011;447;51.332;6.778;2024-03-23T09:58:08;5.77;;;3.03;;
920;SDS011;447;51.332;6.778;2024-03-23T10:00:38;8.40;;;4.10;;
920;SDS011;447;51.332;6.778;2024-03-23T10:03:07;5.80;;;3.50;;
920;SDS011;447;51.332;6.778;2024-03-23T10:05:34;5.80;;;2.33;;
920;SDS011;447;51.332;6.778;2024-03-23T10:08:00;3.97;;;3.07;;
920;SDS011;447;51.332;6.778;2024-03-23T10:10:43;9.03;;;3.10;;
920;SDS011;447;51.332;6.778;2024-03-23T10:13:10;13.57;;;3.30;;
920;SDS011;447;51.332;6.778;2024-03-23T10:15:40;8.70;;;2.57;;
920;SDS011;447;51.332;6.778;2024-03-23T10:20:41;4.50;;;2.63;;
920;SDS011;447;51.332;6.778;2024-03-23T10:23:17;11.73;;;3.17;;
920;SDS011;447;51.332;6.778;2024-03-23T10:25:43;8.73;;;2.50;;
920;SDS011;447;51.332;6.778;2024-03-23T10:28:11;6.20;;;3.20;;
920;SDS011;447;51.332;6.778;2024-03-23T10:30:37;4.27;;;2.20;;
920;SDS011;447;51.332;6.778;2024-03-23T10:33:09;7.20;;;2.17;;
920;SDS011;447;51.332;6.778;2024-03-23T10:35:37;5.70;;;2.17;;
920;SDS011;447;51.332;6.778;2024-03-23T10:38:07;3.73;;;1.90;;
920;SDS011;447;51.332;6.778;2024-03-23T10:40:36;4.90;;;1.90;;
920;SDS011;447;51.332;6.778;2024-03-23T10:43:05;5.20;;;1.43;;
920;SDS011;447;51.332;6.778;2024-03-23T10:45:33;6.57;;;2.40;;
920;SDS011;447;51.332;6.778;2024-03-23T10:47:59;4.43;;;1.90;;
920;SDS011;447;51.332;6.778;2024-03-23T10:50:27;4.50;;;1.53;;
920;SDS011;447;51.332;6.778;2024-03-23T10:52:53;3.03;;;1.23;;
920;SDS011;447;51.332;6.778;2024-03-23T10:55:21;1.53;;;1.40;;
920;SDS011;447;51.332;6.778;2024-03-23T10:57:52;3.17;;;1.20;;
920;SDS011;447;51.332;6.778;2024-03-23T11:00:20;2.00;;;1.03;;
920;SDS011;447;51.332;6.778;2024-03-23T11:02:49;2.27;;;0.90;;
920;SDS011;447;51.332;6.778;2024-03-23T11:07:53;2.93;;;1.30;;
920;SDS011;447;51.332;6.778;2024-03-23T11:10:29;1.27;;;0.80;;
920;SDS011;447;51.332;6.778;2024-03-23T11:12:56;4.00;;;1.37;;
920;SDS011;447;51.332;6.778;2024-03-23T11:15:23;2.27;;;1.00;;
920;SDS011;447;51.332;6.778;2024-03-23T11:18:02;0.80;;;0.80;;
920;SDS011;447;51.332;6.778;2024-03-23T11:20:33;2.13;;;1.20;;
920;SDS011;447;51.332;6.778;2024-03-23T11:23:01;1.93;;;1.23;;
920;SDS011;447;51.332;6.778;2024-03-23T11:25:29;4.80;;;1.60;;
920;SDS011;447;51.332;6.778;2024-03-23T11:28:09;2.63;;;1.50;;
920;SDS011;447;51.332;6.778;2024-03-23T11:30:41;3.20;;;1.50;;
920;SDS011;447;51.332;6.778;2024-03-23T11:33:08;5.30;;;1.83;;
920;SDS011;447;51.332;6.778;2024-03-23T11:35:40;6.07;;;1.67;;
920;SDS011;447;51.332;6.778;2024-03-23T11:40:44;8.80;;;2.10;;
920;SDS011;447;51.332;6.778;2024-03-23T11:43:15;5.50;;;2.10;;
920;SDS011;447;51.332;6.778;2024-03-23T11:48:12;3.20;;;2.10;;
920;SDS011;447;51.332;6.778;2024-03-23T11:50:46;4.20;;;1.70;;
920;SDS011;447;51.332;6.778;2024-03-23T11:55:56;4.30;;;1.70;;
920;SDS011;447;51.332;6.778;2024-03-23T11:58:24;6.30;;;1.90;;
920;SDS011;447;51.332;6.778;2024-03-23T12:00:56;3.47;;;1.50;;
920;SDS011;447;51.332;6.778;2024-03-23T12:03:24;7.30;;;1.80;;
920;SDS011;447;51.332;6.778;2024-03-23T12:05:58;2.97;;;1.43;;
920;SDS011;447;51.332;6.778;2024-03-23T12:08:34;4.17;;;1.33;;
920;SDS011;447;51.332;6.778;2024-03-23T12:11:12;3.60;;;1.60;;
920;SDS011;447;51.332;6.778;2024-03-23T12:13:41;1.70;;;1.30;;
920;SDS011;447;51.332;6.778;2024-03-23T12:16:12;2.70;;;1.30;;
920;SDS011;447;51.332;6.778;2024-03-23T12:18:46;5.40;;;1.30;;
920;SDS011;447;51.332;6.778;2024-03-23T12:21:14;2.53;;;1.40;;
920;SDS011;447;51.332;6.778;2024-03-23T12:23:42;1.80;;;1.50;;
920;SDS011;447;51.332;6.778;2024-03-23T12:26:10;2.47;;;1.30;;
920;SDS011;447;51.332;6.778;2024-03-23T12:28:37;2.90;;;1.33;;
920;SDS011;447;51.332;6.778;2024-03-23T12:31:06;1.90;;;1.30;;
920;SDS011;447;51.332;6.778;2024-03-23T12:33:32;2.13;;;1.20;;
920;SDS011;447;51.332;6.778;2024-03-23T12:35:58;3.00;;;1.23;;
920;SDS011;447;51.332;6.778;2024-03-23T12:38:24;2.10;;;1.30;;
920;SDS011;447;51.332;6.778;2024-03-23T12:40:50;2.60;;;1.40;;
920;SDS011;447;51.332;6.778;2024-03-23T12:43:17;3.00;;;1.63;;
920;SDS011;447;51.332;6.778;2024-03-23T12:45:47;2.83;;;1.30;;
920;SDS011;447;51.332;6.778;2024-03-23T12:48:17;2.50;;;1.83;;
920;SDS011;447;51.332;6.778;2024-03-23T12:50:43;3.90;;;1.70;;
920;SDS011;447;51.332;6.778;2024-03-23T12:53:12;3.37;;;1.53;;
920;SDS011;447;51.332;6.778;2024-03-23T12:55:38;2.80;;;1.50;;
920;SDS011;447;51.332;6.778;2024-03-23T12:58:04;2.67;;;1.53;;
920;SDS011;447;51.332;6.778;2024-03-23T13:00:32;3.60;;;1.30;;
920;SDS011;447;51.332;6.778;2024-03-23T13:02:58;2.23;;;1.30;;
920;SDS011;447;51.332;6.778;2024-03-23T13:05:24;4.60;;;1.43;;
920;SDS011;447;51.332;6.778;2024-03-23T13:07:50;2.53;;;1.30;;
920;SDS011;447;51.332;6.778;2024-03-23T13:10:17;4.10;;;2.03;;
920;SDS011;447;51.332;6.778;2024-03-23T13:12:43;2.60;;;1.30;;
920;SDS011;447;51.332;6.778;2024-03-23T13:15:09;2.30;;;1.40;;
920;SDS011;447;51.332;6.778;2024-03-23T13:17:35;5.53;;;1.77;;
920;SDS011;447;51.332;6.778;2024-03-23T13:20:01;3.20;;;1.30;;
920;SDS011;447;51.332;6.778;2024-03-23T13:22:28;3.63;;;1.40;;
920;SDS011;447;51.332;6.778;2024-03-23T13:24:55;1.97;;;1.40;;
920;SDS011;447;51.332;6.778;2024-03-23T13:27:24;2.70;;;1.40;;
920;SDS011;447;51.332;6.778;2024-03-23T13:29:50;3.17;;;1.37;;
920;SDS011;447;51.332;6.778;2024-03-23T13:32:16;3.87;;;1.23;;
920;SDS011;447;51.332;6.778;2024-03-23T13:34:44;2.57;;;1.30;;
920;SDS011;447;51.332;6.778;2024-03-23T13:37:10;3.20;;;1.10;;
920;SDS011;447;51.332;6.778;2024-03-23T13:39:36;2.30;;;0.87;;
920;SDS011;447;51.332;6.778;2024-03-23T13:42:03;2.77;;;1.03;;
920;SDS011;447;51.332;6.778;2024-03-23T13:44:29;3.70;;;1.10;;
920;SDS011;447;51.332;6.778;2024-03-23T13:46:56;1.13;;;0.80;;
920;SDS011;447;51.332;6.778;2024-03-23T13:49:29;3.27;;;1.20;;
920;SDS011;447;51.332;6.778;2024-03-23T13:51:57;1.87;;;1.47;;
920;SDS011;447;51.332;6.778;2024-03-23T13:54:25;3.40;;;1.20;;
920;SDS011;447;51.332;6.778;2024-03-23T13:56:51;2.20;;;1.27;;
920;SDS011;447;51.332;6.778;2024-03-23T13:59:21;6.83;;;1.93;;
920;SDS011;447;51.332;6.778;2024-03-23T14:01:52;3.80;;;1.00;;
920;SDS011;447;51.332;6.778;2024-03-23T14:04:21;6.70;;;1.43;;
920;SDS011;447;51.332;6.778;2024-03-23T14:06:48;7.70;;;2.67;;
920;SDS011;447;51.332;6.778;2024-03-23T14:09:16;5.67;;;2.60;;
920;SDS011;447;51.332;6.778;2024-03-23T14:11:49;8.13;;;2.40;;
920;SDS011;447;51.332;6.778;2024-03-23T14:14:19;2.33;;;1.33;;
920;SDS011;447;51.332;6.778;2024-03-23T14:16:47;2.30;;;1.10;;
920;SDS011;447;51.332;6.778;2024-03-23T14:19:14;2.60;;;1.50;;
920;SDS011;447;51.332;6.778;2024-03-23T14:21:45;6.30;;;2.03;;
920;SDS011;447;51.332;6.778;2024-03-23T14:24:11;9.97;;;2.50;;
920;SDS011;447;51.332;6.778;2024-03-23T14:26:37;8.77;;;2.60;;
920;SDS011;447;51.332;6.778;2024-03-23T14:29:06;5.33;;;2.00;;
920;SDS011;447;51.332;6.778;2024-03-23T14:31:34;7.07;;;2.90;;
920;SDS011;447;51.332;6.778;2024-03-23T14:34:01;8.20;;;2.60;;
920;SDS011;447;51.332;6.778;2024-03-23T14:36:27;8.23;;;2.17;;
920;SDS011;447;51.332;6.778;2024-03-23T14:38:53;11.50;;;2.20;;
920;SDS011;447;51.332;6.778;2024-03-23T14:41:20;7.20;;;1.80;;
920;SDS011;447;51.332;6.778;2024-03-23T14:43:46;3.00;;;1.70;;
920;SDS011;447;51.332;6.778;2024-03-23T14:46:15;3.70;;;1.70;;
920;SDS011;447;51.332;6.778;2024-03-23T14:48:43;2.60;;;1.20;;
920;SDS011;447;51.332;6.778;2024-03-23T14:51:10;3.13;;;1.73;;
920;SDS011;447;51.332;6.778;2024-03-23T14:53:37;3.17;;;1.23;;
920;SDS011;447;51.332;6.778;2024-03-23T14:56:08;3.80;;;1.40;;
920;SDS011;447;51.332;6.778;2024-03-23T14:58:42;6.47;;;1.20;;
920;SDS011;447;51.332;6.778;2024-03-23T15:01:11;2.33;;;1.27;;
920;SDS011;447;51.332;6.778;2024-03-23T15:03:40;1.90;;;1.27;;
920;SDS011;447;51.332;6.778;2024-03-23T15:06:08;3.87;;;1.50;;
920;SDS011;447;51.332;6.778;2024-03-23T15:08:34;5.07;;;1.60;;
920;SDS011;447;51.332;6.778;2024-03-23T15:11:02;2.90;;;1.57;;
920;SDS011;447;51.332;6.778;2024-03-23T15:13:37;5.00;;;1.30;;
920;SDS011;447;51.332;6.778;2024-03-23T15:16:04;1.87;;;1.10;;
920;SDS011;447;51.332;6.778;2024-03-23T15:18:34;5.30;;;1.87;;
920;SDS011;447;51.332;6.778;2024-03-23T15:21:04;4.60;;;1.57;;
920;SDS011;447;51.332;6.778;2024-03-23T15:23:37;5.23;;;1.40;;
920;SDS011;447;51.332;6.778;2024-03-23T15:26:03;4.40;;;1.50;;
920;SDS011;447;51.332;6.778;2024-03-23T15:28:31;3.27;;;1.67;;
920;SDS011;447;51.332;6.778;2024-03-23T15:31:04;2.83;;;1.37;;
920;SDS011;447;51.332;6.778;2024-03-23T15:33:30;4.00;;;1.63;;
920;SDS011;447;51.332;6.778;2024-03-23T15:36:00;2.93;;;1.30;;
920;SDS011;447;51.332;6.778;2024-03-23T15:38:27;3.53;;;1.40;;
920;SDS011;447;51.332;6.778;2024-03-23T15:40:55;2.50;;;1.40;;
920;SDS011;447;51.332;6.778;2024-03-23T15:43:25;1.53;;;1.27;;
920;SDS011;447;51.332;6.778;2024-03-23T15:45:59;4.50;;;1.20;;
920;SDS011;447;51.332;6.778;2024-03-23T15:48:29;2.63;;;1.10;;
920;SDS011;447;51.332;6.778;2024-03-23T15:50:56;2.73;;;1.63;;
920;SDS011;447;51.332;6.778;2024-03-23T15:53:24;5.13;;;1.53;;
920;SDS011;447;51.332;6.778;2024-03-23T15:58:20;1.87;;;1.20;;
920;SDS011;447;51.332;6.778;2024-03-23T16:01:09;1.80;;;1.17;;
920;SDS011;447;51.332;6.778;2024-03-23T16:03:36;3.40;;;1.80;;
920;SDS011;447;51.332;6.778;2024-03-23T16:08:32;2.93;;;1.13;;
920;SDS011;447;51.332;6.778;2024-03-23T16:11:05;4.40;;;1.40;;
920;SDS011;447;51.332;6.778;2024-03-23T16:13:34;3.67;;;1.20;;
920;SDS011;447;51.332;6.778;2024-03-23T16:16:02;2.00;;;1.07;;
920;SDS011;447;51.332;6.778;2024-03-23T16:18:31;2.90;;;1.20;;
920;SDS011;447;51.332;6.778;2024-03-23T16:20:59;2.43;;;1.33;;
920;SDS011;447;51.332;6.778;2024-03-23T16:23:29;3.23;;;1.17;;
920;SDS011;447;51.332;6.778;2024-03-23T16:25:58;5.63;;;1.40;;
920;SDS011;447;51.332;6.778;2024-03-23T16:28:27;1.70;;;1.30;;
920;SDS011;447;51.332;6.778;2024-03-23T16:30:56;1.63;;;1.10;;
920;SDS011;447;51.332;6.778;2024-03-23T16:33:27;2.10;;;1.20;;
920;SDS011;447;51.332;6.778;2024-03-23T16:36:00;1.93;;;1.00;;
920;SDS011;447;51.332;6.778;2024-03-23T16:38:43;3.30;;;1.00;;
920;SDS011;447;51.332;6.778;2024-03-23T16:41:12;2.43;;;1.23;;
920;SDS011;447;51.332;6.778;2024-03-23T16:43:38;5.00;;;1.10;;
920;SDS011;447;51.332;6.778;2024-03-23T16:48:38;2.30;;;1.00;;
920;SDS011;447;51.332;6.778;2024-03-23T16:51:10;2.40;;;1.10;;
920;SDS011;447;51.332;6.778;2024-03-23T16:53:38;3.40;;;1.30;;
920;SDS011;447;51.332;6.778;2024-03-23T16:56:06;2.07;;;1.10;;
920;SDS011;447;51.332;6.778;2024-03-23T16:58:35;4.73;;;1.50;;
920;SDS011;447;51.332;6.778;2024-03-23T17:01:05;1.60;;;1.30;;
920;SDS011;447;51.332;6.778;2024-03-23T17:03:49;1.27;;;1.17;;
920;SDS011;447;51.332;6.778;2024-03-23T17:06:21;2.00;;;1.27;;
920;SDS011;447;51.332;6.778;2024-03-23T17:08:49;3.43;;;1.27;;
920;SDS011;447;51.332;6.778;2024-03-23T17:11:16;1.93;;;1.10;;